sensor_id;sensor_type;location;lat;lon;timestamp;temperature;humidity
12060;DHT22;6091;51.432;6.880;2023-07-13T00:02:23;29.30;35.50
12060;DHT22;6091;51.432;6.880;2023-07-13T00:04:50;29.30;35.50
12060;DHT22;6091;51.432;6.880;2023-07-13T00:07:19;29.40;35.50
12060;DHT22;6091;51.432;6.880;2023-07-13T00:09:50;29.40;35.90
12060;DHT22;6091;51.432;6.880;2023-07-13T00:12:30;29.40;35.70
12060;DHT22;6091;51.432;6.880;2023-07-13T00:15:05;29.40;35.90
12060;DHT22;6091;51.432;6.880;2023-07-13T00:17:54;29.40;35.70
12060;DHT22;6091;51.432;6.880;2023-07-13T00:20:24;29.30;35.60
12060;DHT22;6091;51.432;6.880;2023-07-13T00:22:52;29.30;35.70
12060;DHT22;6091;51.432;6.880;2023-07-13T00:25:21;29.30;35.60
12060;DHT22;6091;51.432;6.880;2023-07-13T00:27:51;29.30;35.50
12060;DHT22;6091;51.432;6.880;2023-07-13T00:30:18;29.30;35.50
12060;DHT22;6091;51.432;6.880;2023-07-13T00:32:45;29.30;35.70
12060;DHT22;6091;51.432;6.880;2023-07-13T00:35:14;29.30;35.70
12060;DHT22;6091;51.432;6.880;2023-07-13T00:37:42;29.30;35.60
12060;DHT22;6091;51.432;6.880;2023-07-13T00:40:12;29.30;35.60
12060;DHT22;6091;51.432;6.880;2023-07-13T00:42:40;29.20;35.40
12060;DHT22;6091;51.432;6.880;2023-07-13T00:47:56;29.30;35.70
12060;DHT22;6091;51.432;6.880;2023-07-13T00:50:24;29.30;35.80
12060;DHT22;6091;51.432;6.880;2023-07-13T00:52:53;29.20;35.60
12060;DHT22;6091;51.432;6.880;2023-07-13T00:55:24;29.20;35.70
12060;DHT22;6091;51.432;6.880;2023-07-13T00:57:54;29.20;35.70
12060;DHT22;6091;51.432;6.880;2023-07-13T01:00:22;29.20;35.70
12060;DHT22;6091;51.432;6.880;2023-07-13T01:02:55;29.20;35.80
12060;DHT22;6091;51.432;6.880;2023-07-13T01:05:25;29.20;35.70
12060;DHT22;6091;51.432;6.880;2023-07-13T01:07:52;29.20;35.80
12060;DHT22;6091;51.432;6.880;2023-07-13T01:10:26;29.10;35.80
12060;DHT22;6091;51.432;6.880;2023-07-13T01:12:54;29.20;35.90
12060;DHT22;6091;51.432;6.880;2023-07-13T01:18:23;29.10;35.90
12060;DHT22;6091;51.432;6.880;2023-07-13T01:20:57;29.10;35.80
12060;DHT22;6091;51.432;6.880;2023-07-13T01:23:27;29.10;35.80
12060;DHT22;6091;51.432;6.880;2023-07-13T01:25:57;29.10;35.80
12060;DHT22;6091;51.432;6.880;2023-07-13T01:28:27;29.10;35.90
12060;DHT22;6091;51.432;6.880;2023-07-13T01:30:57;29.10;35.90
12060;DHT22;6091;51.432;6.880;2023-07-13T01:33:25;29.10;35.90
12060;DHT22;6091;51.432;6.880;2023-07-13T01:35:53;29.00;35.90
12060;DHT22;6091;51.432;6.880;2023-07-13T01:38:24;29.00;35.80
12060;DHT22;6091;51.432;6.880;2023-07-13T01:40:53;29.10;35.80
12060;DHT22;6091;51.432;6.880;2023-07-13T01:43:20;29.00;35.80
12060;DHT22;6091;51.432;6.880;2023-07-13T01:45:48;29.00;35.90
12060;DHT22;6091;51.432;6.880;2023-07-13T01:48:15;29.00;35.80
12060;DHT22;6091;51.432;6.880;2023-07-13T01:50:42;29.00;36.50
12060;DHT22;6091;51.432;6.880;2023-07-13T01:53:10;29.00;36.00
12060;DHT22;6091;51.432;6.880;2023-07-13T01:55:37;29.00;36.10
12060;DHT22;6091;51.432;6.880;2023-07-13T01:58:05;29.00;36.10
12060;DHT22;6091;51.432;6.880;2023-07-13T02:00:33;29.00;36.00
12060;DHT22;6091;51.432;6.880;2023-07-13T02:03:00;28.90;36.00
12060;DHT22;6091;51.432;6.880;2023-07-13T02:05:34;28.90;35.90
12060;DHT22;6091;51.432;6.880;2023-07-13T02:08:01;29.00;36.10
12060;DHT22;6091;51.432;6.880;2023-07-13T02:10:28;28.90;36.10
12060;DHT22;6091;51.432;6.880;2023-07-13T02:12:55;28.90;36.10
12060;DHT22;6091;51.432;6.880;2023-07-13T02:15:22;28.90;36.00
12060;DHT22;6091;51.432;6.880;2023-07-13T02:17:49;28.90;36.10
12060;DHT22;6091;51.432;6.880;2023-07-13T02:20:16;28.90;35.90
12060;DHT22;6091;51.432;6.880;2023-07-13T02:22:44;28.90;36.10
12060;DHT22;6091;51.432;6.880;2023-07-13T02:25:11;28.80;36.10
12060;DHT22;6091;51.432;6.880;2023-07-13T02:27:38;28.90;36.20
12060;DHT22;6091;51.432;6.880;2023-07-13T02:30:05;28.90;36.00
12060;DHT22;6091;51.432;6.880;2023-07-13T02:32:33;28.90;36.20
12060;DHT22;6091;51.432;6.880;2023-07-13T02:35:00;28.90;36.30
12060;DHT22;6091;51.432;6.880;2023-07-13T02:37:27;28.80;36.30
12060;DHT22;6091;51.432;6.880;2023-07-13T02:39:55;28.90;36.30
12060;DHT22;6091;51.432;6.880;2023-07-13T02:42:22;28.80;36.30
12060;DHT22;6091;51.432;6.880;2023-07-13T02:44:49;28.80;36.30
12060;DHT22;6091;51.432;6.880;2023-07-13T02:47:17;28.90;36.20
12060;DHT22;6091;51.432;6.880;2023-07-13T02:49:44;28.80;36.30
12060;DHT22;6091;51.432;6.880;2023-07-13T02:52:11;28.80;36.30
12060;DHT22;6091;51.432;6.880;2023-07-13T02:54:38;28.80;36.30
12060;DHT22;6091;51.432;6.880;2023-07-13T02:57:06;28.80;36.30
12060;DHT22;6091;51.432;6.880;2023-07-13T02:59:33;28.80;36.30
12060;DHT22;6091;51.432;6.880;2023-07-13T03:02:01;28.80;36.40
12060;DHT22;6091;51.432;6.880;2023-07-13T03:04:29;28.70;36.30
12060;DHT22;6091;51.432;6.880;2023-07-13T03:06:56;28.70;36.30
12060;DHT22;6091;51.432;6.880;2023-07-13T03:09:25;28.80;36.40
12060;DHT22;6091;51.432;6.880;2023-07-13T03:11:53;28.70;36.30
12060;DHT22;6091;51.432;6.880;2023-07-13T03:14:22;28.80;36.30
12060;DHT22;6091;51.432;6.880;2023-07-13T03:16:50;28.80;36.50
12060;DHT22;6091;51.432;6.880;2023-07-13T03:19:19;28.70;36.50
12060;DHT22;6091;51.432;6.880;2023-07-13T03:21:46;28.70;36.50
12060;DHT22;6091;51.432;6.880;2023-07-13T03:24:13;28.70;36.50
12060;DHT22;6091;51.432;6.880;2023-07-13T03:26:40;28.70;36.50
12060;DHT22;6091;51.432;6.880;2023-07-13T03:29:07;28.70;36.50
12060;DHT22;6091;51.432;6.880;2023-07-13T03:31:35;28.70;36.60
12060;DHT22;6091;51.432;6.880;2023-07-13T03:34:03;28.70;36.60
12060;DHT22;6091;51.432;6.880;2023-07-13T03:36:31;28.70;36.50
12060;DHT22;6091;51.432;6.880;2023-07-13T03:39:02;28.70;36.60
12060;DHT22;6091;51.432;6.880;2023-07-13T03:41:30;28.70;36.40
12060;DHT22;6091;51.432;6.880;2023-07-13T03:43:58;28.70;36.60
12060;DHT22;6091;51.432;6.880;2023-07-13T03:46:25;28.70;36.60
12060;DHT22;6091;51.432;6.880;2023-07-13T03:48:54;28.70;36.50
12060;DHT22;6091;51.432;6.880;2023-07-13T03:51:21;28.70;36.50
12060;DHT22;6091;51.432;6.880;2023-07-13T03:53:48;28.70;36.50
12060;DHT22;6091;51.432;6.880;2023-07-13T03:56:18;28.70;36.50
12060;DHT22;6091;51.432;6.880;2023-07-13T03:58:47;28.70;36.60
12060;DHT22;6091;51.432;6.880;2023-07-13T04:01:17;28.70;36.70
12060;DHT22;6091;51.432;6.880;2023-07-13T04:03:46;28.70;36.70
12060;DHT22;6091;51.432;6.880;2023-07-13T04:06:19;28.70;36.70
12060;DHT22;6091;51.432;6.880;2023-07-13T04:08:55;28.70;36.90
12060;DHT22;6091;51.432;6.880;2023-07-13T04:11:26;28.70;36.70
12060;DHT22;6091;51.432;6.880;2023-07-13T04:13:55;28.70;36.80
12060;DHT22;6091;51.432;6.880;2023-07-13T04:16:22;28.70;36.70
12060;DHT22;6091;51.432;6.880;2023-07-13T04:18:50;28.70;36.70
12060;DHT22;6091;51.432;6.880;2023-07-13T04:21:21;28.70;36.80
12060;DHT22;6091;51.432;6.880;2023-07-13T04:23:49;28.70;37.30
12060;DHT22;6091;51.432;6.880;2023-07-13T04:26:16;28.70;36.80
12060;DHT22;6091;51.432;6.880;2023-07-13T04:28:43;28.60;36.70
12060;DHT22;6091;51.432;6.880;2023-07-13T04:31:10;28.70;36.80
12060;DHT22;6091;51.432;6.880;2023-07-13T04:33:37;28.70;36.70
12060;DHT22;6091;51.432;6.880;2023-07-13T04:36:04;28.60;36.70
12060;DHT22;6091;51.432;6.880;2023-07-13T04:38:32;28.60;36.60
12060;DHT22;6091;51.432;6.880;2023-07-13T04:41:01;28.60;36.70
12060;DHT22;6091;51.432;6.880;2023-07-13T04:43:31;28.60;36.70
12060;DHT22;6091;51.432;6.880;2023-07-13T04:46:11;28.60;36.70
12060;DHT22;6091;51.432;6.880;2023-07-13T04:48:40;28.60;36.90
12060;DHT22;6091;51.432;6.880;2023-07-13T04:51:07;28.60;36.90
12060;DHT22;6091;51.432;6.880;2023-07-13T04:53:34;28.60;36.80
12060;DHT22;6091;51.432;6.880;2023-07-13T04:56:02;28.60;36.80
12060;DHT22;6091;51.432;6.880;2023-07-13T04:58:30;28.60;36.90
12060;DHT22;6091;51.432;6.880;2023-07-13T05:01:04;28.60;36.90
12060;DHT22;6091;51.432;6.880;2023-07-13T05:03:33;28.60;36.90
12060;DHT22;6091;51.432;6.880;2023-07-13T05:06:04;28.60;37.00
12060;DHT22;6091;51.432;6.880;2023-07-13T05:08:33;28.60;37.00
12060;DHT22;6091;51.432;6.880;2023-07-13T05:11:01;28.60;37.00
12060;DHT22;6091;51.432;6.880;2023-07-13T05:13:30;28.60;37.00
12060;DHT22;6091;51.432;6.880;2023-07-13T05:15:59;28.60;37.00
12060;DHT22;6091;51.432;6.880;2023-07-13T05:18:28;28.60;37.00
12060;DHT22;6091;51.432;6.880;2023-07-13T05:21:02;28.60;37.00
12060;DHT22;6091;51.432;6.880;2023-07-13T05:23:33;28.60;37.10
12060;DHT22;6091;51.432;6.880;2023-07-13T05:26:02;28.60;37.00
12060;DHT22;6091;51.432;6.880;2023-07-13T05:28:34;28.60;37.00
12060;DHT22;6091;51.432;6.880;2023-07-13T05:31:02;28.60;37.10
12060;DHT22;6091;51.432;6.880;2023-07-13T05:33:29;28.60;37.10
12060;DHT22;6091;51.432;6.880;2023-07-13T05:35:56;28.60;37.10
12060;DHT22;6091;51.432;6.880;2023-07-13T05:38:24;28.60;37.10
12060;DHT22;6091;51.432;6.880;2023-07-13T05:40:53;28.70;37.10
12060;DHT22;6091;51.432;6.880;2023-07-13T05:43:21;28.60;37.10
12060;DHT22;6091;51.432;6.880;2023-07-13T05:45:52;28.60;37.10
12060;DHT22;6091;51.432;6.880;2023-07-13T05:48:20;28.70;37.20
12060;DHT22;6091;51.432;6.880;2023-07-13T05:50:47;28.60;37.60
12060;DHT22;6091;51.432;6.880;2023-07-13T05:53:15;28.60;37.10
12060;DHT22;6091;51.432;6.880;2023-07-13T05:55:43;28.60;37.00
12060;DHT22;6091;51.432;6.880;2023-07-13T05:58:14;28.70;37.10
12060;DHT22;6091;51.432;6.880;2023-07-13T06:00:42;28.60;37.00
12060;DHT22;6091;51.432;6.880;2023-07-13T06:03:09;28.60;36.90
12060;DHT22;6091;51.432;6.880;2023-07-13T06:05:38;28.50;36.80
12060;DHT22;6091;51.432;6.880;2023-07-13T06:08:08;28.60;36.80
12060;DHT22;6091;51.432;6.880;2023-07-13T06:10:36;28.50;36.90
12060;DHT22;6091;51.432;6.880;2023-07-13T06:13:03;28.40;36.90
12060;DHT22;6091;51.432;6.880;2023-07-13T06:15:30;28.30;36.80
12060;DHT22;6091;51.432;6.880;2023-07-13T06:17:57;28.30;36.90
12060;DHT22;6091;51.432;6.880;2023-07-13T06:20:24;28.20;37.00
12060;DHT22;6091;51.432;6.880;2023-07-13T06:22:52;28.10;37.00
12060;DHT22;6091;51.432;6.880;2023-07-13T06:25:19;27.90;37.10
12060;DHT22;6091;51.432;6.880;2023-07-13T06:27:46;28.00;37.20
12060;DHT22;6091;51.432;6.880;2023-07-13T06:30:13;28.00;37.30
12060;DHT22;6091;51.432;6.880;2023-07-13T06:32:40;27.90;37.90
12060;DHT22;6091;51.432;6.880;2023-07-13T06:35:07;27.90;37.30
12060;DHT22;6091;51.432;6.880;2023-07-13T06:37:35;27.80;37.40
12060;DHT22;6091;51.432;6.880;2023-07-13T06:40:02;27.70;37.30
12060;DHT22;6091;51.432;6.880;2023-07-13T06:42:30;27.70;37.70
12060;DHT22;6091;51.432;6.880;2023-07-13T06:44:57;27.70;37.50
12060;DHT22;6091;51.432;6.880;2023-07-13T06:47:24;27.60;37.70
12060;DHT22;6091;51.432;6.880;2023-07-13T06:49:51;27.60;37.70
12060;DHT22;6091;51.432;6.880;2023-07-13T06:52:18;27.60;37.80
12060;DHT22;6091;51.432;6.880;2023-07-13T06:54:45;27.60;37.90
12060;DHT22;6091;51.432;6.880;2023-07-13T06:57:12;27.60;37.90
12060;DHT22;6091;51.432;6.880;2023-07-13T06:59:39;27.50;37.90
12060;DHT22;6091;51.432;6.880;2023-07-13T07:02:09;27.50;38.00
12060;DHT22;6091;51.432;6.880;2023-07-13T07:04:37;27.50;38.20
12060;DHT22;6091;51.432;6.880;2023-07-13T07:07:04;27.50;38.10
12060;DHT22;6091;51.432;6.880;2023-07-13T07:09:31;27.50;38.20
12060;DHT22;6091;51.432;6.880;2023-07-13T07:11:58;27.50;38.20
12060;DHT22;6091;51.432;6.880;2023-07-13T07:14:30;27.60;38.20
12060;DHT22;6091;51.432;6.880;2023-07-13T07:16:58;27.50;38.20
12060;DHT22;6091;51.432;6.880;2023-07-13T07:19:29;27.60;38.30
12060;DHT22;6091;51.432;6.880;2023-07-13T07:21:57;27.20;38.20
12060;DHT22;6091;51.432;6.880;2023-07-13T07:24:24;27.60;38.40
12060;DHT22;6091;51.432;6.880;2023-07-13T07:26:51;27.60;38.40
12060;DHT22;6091;51.432;6.880;2023-07-13T07:29:22;27.60;38.40
12060;DHT22;6091;51.432;6.880;2023-07-13T07:31:54;27.60;38.40
12060;DHT22;6091;51.432;6.880;2023-07-13T07:34:41;27.60;38.40
12060;DHT22;6091;51.432;6.880;2023-07-13T07:37:13;27.70;38.50
12060;DHT22;6091;51.432;6.880;2023-07-13T07:39:45;27.70;38.60
12060;DHT22;6091;51.432;6.880;2023-07-13T07:42:32;27.70;38.50
12060;DHT22;6091;51.432;6.880;2023-07-13T07:44:59;27.70;38.50
12060;DHT22;6091;51.432;6.880;2023-07-13T07:47:28;27.70;38.50
12060;DHT22;6091;51.432;6.880;2023-07-13T07:49:55;27.80;38.50
12060;DHT22;6091;51.432;6.880;2023-07-13T07:52:22;27.80;38.60
12060;DHT22;6091;51.432;6.880;2023-07-13T07:54:49;27.80;38.60
12060;DHT22;6091;51.432;6.880;2023-07-13T07:57:19;27.70;38.50
12060;DHT22;6091;51.432;6.880;2023-07-13T08:00:06;27.80;38.60
12060;DHT22;6091;51.432;6.880;2023-07-13T08:02:37;27.80;38.60
12060;DHT22;6091;51.432;6.880;2023-07-13T08:05:10;27.80;38.50
12060;DHT22;6091;51.432;6.880;2023-07-13T08:07:40;27.80;38.60
12060;DHT22;6091;51.432;6.880;2023-07-13T08:10:08;27.80;38.50
12060;DHT22;6091;51.432;6.880;2023-07-13T08:12:37;27.80;38.50
12060;DHT22;6091;51.432;6.880;2023-07-13T08:15:12;27.80;38.60
12060;DHT22;6091;51.432;6.880;2023-07-13T08:17:41;27.80;38.60
12060;DHT22;6091;51.432;6.880;2023-07-13T08:20:08;27.80;38.60
12060;DHT22;6091;51.432;6.880;2023-07-13T08:22:36;27.80;38.70
12060;DHT22;6091;51.432;6.880;2023-07-13T08:25:03;27.80;38.70
12060;DHT22;6091;51.432;6.880;2023-07-13T08:27:30;27.80;38.70
12060;DHT22;6091;51.432;6.880;2023-07-13T08:29:58;27.80;38.70
12060;DHT22;6091;51.432;6.880;2023-07-13T08:32:25;27.80;38.70
12060;DHT22;6091;51.432;6.880;2023-07-13T08:34:52;27.80;38.70
12060;DHT22;6091;51.432;6.880;2023-07-13T08:37:19;27.80;38.70
12060;DHT22;6091;51.432;6.880;2023-07-13T08:39:46;27.80;38.80
12060;DHT22;6091;51.432;6.880;2023-07-13T08:47:58;27.90;38.90
12060;DHT22;6091;51.432;6.880;2023-07-13T08:50:35;27.90;38.90
12060;DHT22;6091;51.432;6.880;2023-07-13T08:53:34;27.90;38.90
12060;DHT22;6091;51.432;6.880;2023-07-13T08:56:11;27.90;38.90
12060;DHT22;6091;51.432;6.880;2023-07-13T08:58:53;27.90;38.80
12060;DHT22;6091;51.432;6.880;2023-07-13T09:01:34;27.90;38.90
12060;DHT22;6091;51.432;6.880;2023-07-13T09:04:33;27.90;38.80
12060;DHT22;6091;51.432;6.880;2023-07-13T09:16:10;28.00;39.10
12060;DHT22;6091;51.432;6.880;2023-07-13T09:18:42;28.00;39.00
12060;DHT22;6091;51.432;6.880;2023-07-13T09:21:37;28.10;39.10
12060;DHT22;6091;51.432;6.880;2023-07-13T09:26:57;28.10;39.20
12060;DHT22;6091;51.432;6.880;2023-07-13T09:29:31;28.10;39.00
12060;DHT22;6091;51.432;6.880;2023-07-13T09:32:06;28.10;39.20
12060;DHT22;6091;51.432;6.880;2023-07-13T09:34:37;28.10;39.20
12060;DHT22;6091;51.432;6.880;2023-07-13T09:37:04;28.10;39.20
12060;DHT22;6091;51.432;6.880;2023-07-13T09:39:41;28.10;39.10
12060;DHT22;6091;51.432;6.880;2023-07-13T09:42:16;28.10;39.10
12060;DHT22;6091;51.432;6.880;2023-07-13T09:47:25;28.10;39.20
12060;DHT22;6091;51.432;6.880;2023-07-13T09:50:01;28.10;39.10
12060;DHT22;6091;51.432;6.880;2023-07-13T09:52:45;28.00;39.10
12060;DHT22;6091;51.432;6.880;2023-07-13T09:55:34;28.10;39.30
12060;DHT22;6091;51.432;6.880;2023-07-13T09:58:24;28.20;39.40
12060;DHT22;6091;51.432;6.880;2023-07-13T10:01:03;28.20;39.30
12060;DHT22;6091;51.432;6.880;2023-07-13T10:03:36;28.20;39.20
12060;DHT22;6091;51.432;6.880;2023-07-13T10:06:17;28.20;39.20
12060;DHT22;6091;51.432;6.880;2023-07-13T10:08:47;28.20;39.20
12060;DHT22;6091;51.432;6.880;2023-07-13T10:11:30;28.20;39.10
12060;DHT22;6091;51.432;6.880;2023-07-13T10:14:00;28.20;39.20
12060;DHT22;6091;51.432;6.880;2023-07-13T10:16:32;28.20;39.10
12060;DHT22;6091;51.432;6.880;2023-07-13T10:19:15;28.10;39.10
12060;DHT22;6091;51.432;6.880;2023-07-13T10:21:56;28.30;39.40
12060;DHT22;6091;51.432;6.880;2023-07-13T10:24:31;28.30;39.20
12060;DHT22;6091;51.432;6.880;2023-07-13T10:32:47;28.30;39.10
12060;DHT22;6091;51.432;6.880;2023-07-13T10:35:16;28.30;39.00
12060;DHT22;6091;51.432;6.880;2023-07-13T10:40:32;28.40;39.00
12060;DHT22;6091;51.432;6.880;2023-07-13T10:43:13;28.40;39.00
12060;DHT22;6091;51.432;6.880;2023-07-13T10:45:46;28.40;38.90
12060;DHT22;6091;51.432;6.880;2023-07-13T10:48:17;28.40;38.90
12060;DHT22;6091;51.432;6.880;2023-07-13T10:50:49;28.30;38.60
12060;DHT22;6091;51.432;6.880;2023-07-13T10:53:34;28.40;38.70
12060;DHT22;6091;51.432;6.880;2023-07-13T10:56:04;28.40;39.00
12060;DHT22;6091;51.432;6.880;2023-07-13T10:58:42;28.40;39.00
12060;DHT22;6091;51.432;6.880;2023-07-13T11:01:16;28.50;39.00
12060;DHT22;6091;51.432;6.880;2023-07-13T11:03:54;28.50;38.90
12060;DHT22;6091;51.432;6.880;2023-07-13T11:09:17;28.60;39.40
12060;DHT22;6091;51.432;6.880;2023-07-13T11:17:38;28.80;38.60
12060;DHT22;6091;51.432;6.880;2023-07-13T11:25:39;28.80;38.40
12060;DHT22;6091;51.432;6.880;2023-07-13T11:30:40;29.00;38.60
12060;DHT22;6091;51.432;6.880;2023-07-13T11:33:23;29.00;38.40
12060;DHT22;6091;51.432;6.880;2023-07-13T11:36:08;29.10;38.30
12060;DHT22;6091;51.432;6.880;2023-07-13T11:38:48;29.20;37.80
12060;DHT22;6091;51.432;6.880;2023-07-13T11:41:42;29.20;38.10
12060;DHT22;6091;51.432;6.880;2023-07-13T11:44:15;29.30;37.70
12060;DHT22;6091;51.432;6.880;2023-07-13T11:46:55;29.30;37.50
12060;DHT22;6091;51.432;6.880;2023-07-13T11:49:30;29.50;37.70
12060;DHT22;6091;51.432;6.880;2023-07-13T11:51:59;29.60;37.60
12060;DHT22;6091;51.432;6.880;2023-07-13T11:54:41;29.70;37.80
12060;DHT22;6091;51.432;6.880;2023-07-13T11:57:45;29.80;37.50
12060;DHT22;6091;51.432;6.880;2023-07-13T12:00:22;29.90;36.90
12060;DHT22;6091;51.432;6.880;2023-07-13T12:02:56;30.00;37.10
12060;DHT22;6091;51.432;6.880;2023-07-13T12:05:26;30.10;37.20
12060;DHT22;6091;51.432;6.880;2023-07-13T12:07:54;30.00;36.90
12060;DHT22;6091;51.432;6.880;2023-07-13T12:10:29;30.10;36.70
12060;DHT22;6091;51.432;6.880;2023-07-13T12:13:04;30.20;36.30
12060;DHT22;6091;51.432;6.880;2023-07-13T12:15:45;30.30;36.40
12060;DHT22;6091;51.432;6.880;2023-07-13T12:18:30;30.30;36.40
12060;DHT22;6091;51.432;6.880;2023-07-13T12:20:59;30.40;36.20
12060;DHT22;6091;51.432;6.880;2023-07-13T12:23:32;30.40;36.20
12060;DHT22;6091;51.432;6.880;2023-07-13T12:26:04;30.50;35.90
12060;DHT22;6091;51.432;6.880;2023-07-13T12:28:38;30.50;36.10
12060;DHT22;6091;51.432;6.880;2023-07-13T12:31:33;30.60;36.00
12060;DHT22;6091;51.432;6.880;2023-07-13T12:34:08;30.80;36.10
12060;DHT22;6091;51.432;6.880;2023-07-13T12:36:58;30.90;36.20
12060;DHT22;6091;51.432;6.880;2023-07-13T12:42:24;31.20;36.30
12060;DHT22;6091;51.432;6.880;2023-07-13T12:45:23;31.30;35.50
12060;DHT22;6091;51.432;6.880;2023-07-13T12:48:03;31.30;35.10
12060;DHT22;6091;51.432;6.880;2023-07-13T12:50:41;31.30;35.40
12060;DHT22;6091;51.432;6.880;2023-07-13T12:53:15;31.20;35.10
12060;DHT22;6091;51.432;6.880;2023-07-13T12:56:00;31.10;35.10
12060;DHT22;6091;51.432;6.880;2023-07-13T12:58:40;31.00;34.60
12060;DHT22;6091;51.432;6.880;2023-07-13T13:01:10;30.90;34.30
12060;DHT22;6091;51.432;6.880;2023-07-13T13:03:46;30.80;34.80
12060;DHT22;6091;51.432;6.880;2023-07-13T13:06:26;30.70;34.60
12060;DHT22;6091;51.432;6.880;2023-07-13T13:08:57;30.60;34.70
12060;DHT22;6091;51.432;6.880;2023-07-13T13:11:26;30.40;34.60
12060;DHT22;6091;51.432;6.880;2023-07-13T13:13:55;30.40;35.30
12060;DHT22;6091;51.432;6.880;2023-07-13T13:18:57;30.10;35.20
12060;DHT22;6091;51.432;6.880;2023-07-13T13:21:28;30.00;35.40
12060;DHT22;6091;51.432;6.880;2023-07-13T13:23:59;30.00;35.60
12060;DHT22;6091;51.432;6.880;2023-07-13T13:26:26;29.90;35.50
12060;DHT22;6091;51.432;6.880;2023-07-13T13:28:53;29.90;35.80
12060;DHT22;6091;51.432;6.880;2023-07-13T13:31:20;29.90;35.90
12060;DHT22;6091;51.432;6.880;2023-07-13T13:33:47;29.90;36.10
12060;DHT22;6091;51.432;6.880;2023-07-13T13:36:20;29.80;36.10
12060;DHT22;6091;51.432;6.880;2023-07-13T13:38:50;29.90;36.00
12060;DHT22;6091;51.432;6.880;2023-07-13T13:41:17;30.00;36.30
12060;DHT22;6091;51.432;6.880;2023-07-13T13:43:44;30.00;36.40
12060;DHT22;6091;51.432;6.880;2023-07-13T13:46:18;30.10;36.20
12060;DHT22;6091;51.432;6.880;2023-07-13T13:48:48;30.20;36.00
12060;DHT22;6091;51.432;6.880;2023-07-13T13:51:20;30.30;36.10
12060;DHT22;6091;51.432;6.880;2023-07-13T13:53:49;30.30;36.00
12060;DHT22;6091;51.432;6.880;2023-07-13T13:56:18;30.40;35.70
12060;DHT22;6091;51.432;6.880;2023-07-13T13:58:46;30.40;35.70
12060;DHT22;6091;51.432;6.880;2023-07-13T14:01:17;30.30;35.60
12060;DHT22;6091;51.432;6.880;2023-07-13T14:03:47;30.40;35.60
12060;DHT22;6091;51.432;6.880;2023-07-13T14:06:18;30.40;35.50
12060;DHT22;6091;51.432;6.880;2023-07-13T14:08:45;30.30;35.50
12060;DHT22;6091;51.432;6.880;2023-07-13T14:11:21;30.30;35.70
12060;DHT22;6091;51.432;6.880;2023-07-13T14:13:55;30.30;35.70
12060;DHT22;6091;51.432;6.880;2023-07-13T14:16:28;30.30;35.80
12060;DHT22;6091;51.432;6.880;2023-07-13T14:18:59;30.20;35.80
12060;DHT22;6091;51.432;6.880;2023-07-13T14:21:28;30.20;35.80
12060;DHT22;6091;51.432;6.880;2023-07-13T14:23:56;30.20;35.90
12060;DHT22;6091;51.432;6.880;2023-07-13T14:26:25;30.20;35.90
12060;DHT22;6091;51.432;6.880;2023-07-13T14:28:55;30.10;35.90
12060;DHT22;6091;51.432;6.880;2023-07-13T14:31:25;30.10;36.00
12060;DHT22;6091;51.432;6.880;2023-07-13T14:33:57;30.10;36.70
12060;DHT22;6091;51.432;6.880;2023-07-13T14:36:45;30.00;36.70
12060;DHT22;6091;51.432;6.880;2023-07-13T14:39:20;30.00;36.40
12060;DHT22;6091;51.432;6.880;2023-07-13T14:41:54;30.00;36.30
12060;DHT22;6091;51.432;6.880;2023-07-13T14:44:26;30.00;36.40
12060;DHT22;6091;51.432;6.880;2023-07-13T14:46:59;30.00;36.50
12060;DHT22;6091;51.432;6.880;2023-07-13T14:49:37;29.90;36.40
12060;DHT22;6091;51.432;6.880;2023-07-13T14:52:33;29.90;36.60
12060;DHT22;6091;51.432;6.880;2023-07-13T14:55:00;29.90;36.60
12060;DHT22;6091;51.432;6.880;2023-07-13T14:57:27;29.90;36.70
12060;DHT22;6091;51.432;6.880;2023-07-13T14:59:55;29.90;36.70
12060;DHT22;6091;51.432;6.880;2023-07-13T15:02:50;30.00;36.90
12060;DHT22;6091;51.432;6.880;2023-07-13T15:05:22;30.00;36.90
12060;DHT22;6091;51.432;6.880;2023-07-13T15:07:52;30.00;36.90
12060;DHT22;6091;51.432;6.880;2023-07-13T15:10:22;30.00;36.90
12060;DHT22;6091;51.432;6.880;2023-07-13T15:12:52;30.10;37.00
12060;DHT22;6091;51.432;6.880;2023-07-13T15:15:23;30.00;36.90
12060;DHT22;6091;51.432;6.880;2023-07-13T15:17:50;30.00;36.90
12060;DHT22;6091;51.432;6.880;2023-07-13T15:20:33;30.00;36.90
12060;DHT22;6091;51.432;6.880;2023-07-13T15:23:02;30.00;37.10
12060;DHT22;6091;51.432;6.880;2023-07-13T15:25:32;30.00;36.90
12060;DHT22;6091;51.432;6.880;2023-07-13T15:28:00;30.00;36.80
12060;DHT22;6091;51.432;6.880;2023-07-13T15:30:48;29.90;36.90
12060;DHT22;6091;51.432;6.880;2023-07-13T15:33:24;29.90;37.60
12060;DHT22;6091;51.432;6.880;2023-07-13T15:35:55;29.70;37.00
12060;DHT22;6091;51.432;6.880;2023-07-13T15:38:29;29.70;37.00
12060;DHT22;6091;51.432;6.880;2023-07-13T15:41:04;30.00;37.50
12060;DHT22;6091;51.432;6.880;2023-07-13T15:43:51;29.50;37.30
12060;DHT22;6091;51.432;6.880;2023-07-13T15:46:21;29.50;37.40
12060;DHT22;6091;51.432;6.880;2023-07-13T15:48:51;29.40;37.40
12060;DHT22;6091;51.432;6.880;2023-07-13T15:51:30;29.30;37.40
12060;DHT22;6091;51.432;6.880;2023-07-13T15:54:02;29.40;37.40
12060;DHT22;6091;51.432;6.880;2023-07-13T15:56:35;29.30;37.30
12060;DHT22;6091;51.432;6.880;2023-07-13T15:59:04;29.30;37.00
12060;DHT22;6091;51.432;6.880;2023-07-13T16:01:32;29.20;36.90
12060;DHT22;6091;51.432;6.880;2023-07-13T16:04:00;29.20;37.00
12060;DHT22;6091;51.432;6.880;2023-07-13T16:06:34;29.20;37.10
12060;DHT22;6091;51.432;6.880;2023-07-13T16:09:05;29.20;36.80
12060;DHT22;6091;51.432;6.880;2023-07-13T16:11:36;29.20;36.90
12060;DHT22;6091;51.432;6.880;2023-07-13T16:14:05;29.20;37.00
12060;DHT22;6091;51.432;6.880;2023-07-13T16:16:34;29.20;36.90
12060;DHT22;6091;51.432;6.880;2023-07-13T16:19:04;29.10;36.90
12060;DHT22;6091;51.432;6.880;2023-07-13T16:21:44;29.10;36.90
12060;DHT22;6091;51.432;6.880;2023-07-13T16:24:19;29.10;36.70
12060;DHT22;6091;51.432;6.880;2023-07-13T16:26:49;29.10;36.80
12060;DHT22;6091;51.432;6.880;2023-07-13T16:29:21;29.10;36.80
12060;DHT22;6091;51.432;6.880;2023-07-13T16:34:36;29.10;36.80
12060;DHT22;6091;51.432;6.880;2023-07-13T16:37:21;29.10;36.80
12060;DHT22;6091;51.432;6.880;2023-07-13T16:39:57;29.10;36.90
12060;DHT22;6091;51.432;6.880;2023-07-13T16:42:27;29.10;36.90
12060;DHT22;6091;51.432;6.880;2023-07-13T16:44:54;29.10;37.00
12060;DHT22;6091;51.432;6.880;2023-07-13T16:47:23;29.10;36.80
12060;DHT22;6091;51.432;6.880;2023-07-13T16:49:51;29.10;36.70
12060;DHT22;6091;51.432;6.880;2023-07-13T16:52:20;29.10;36.60
12060;DHT22;6091;51.432;6.880;2023-07-13T16:54:50;29.10;36.70
12060;DHT22;6091;51.432;6.880;2023-07-13T16:57:26;29.10;37.30
12060;DHT22;6091;51.432;6.880;2023-07-13T17:00:00;29.10;36.80
12060;DHT22;6091;51.432;6.880;2023-07-13T17:02:36;29.10;36.80
12060;DHT22;6091;51.432;6.880;2023-07-13T17:05:09;29.10;36.80
12060;DHT22;6091;51.432;6.880;2023-07-13T17:07:41;29.10;36.70
12060;DHT22;6091;51.432;6.880;2023-07-13T17:10:17;29.10;36.90
12060;DHT22;6091;51.432;6.880;2023-07-13T17:12:51;29.10;36.70